• Join FlightAware (Why Join?)
  • Login
  • US Flag 
05:56AM EDT


 

Airport Tracker/Info


-or-


 

Live Flight TrackerFlight Track Log ✈ LXJ437 ✈ 26-Jun-2013 ✈ KTEB - KFNT

Flight Track Log - Related Links

Times and Time Zones

All times are in EDT time to prevent confusion due to time zone crossing. See the LXJ437 flight status page for this flight to view local times or setup timezone preferences in your user account.

Time Position Orientation Groundspeed Altitude Reporting Facility
EDT Latitude Longitude Course Direction KTS MPH feet Rate Location/Type
09:12AM 40.8333 -74.0833 306° West 182 209 700  Level New York TRACON
09:13AM 40.8167 -74.1500 252° West 208 239 1,500 1,560 Climbing New York TRACON
09:15AM 40.8303 -74.2842 278° West 214 246 5,300 2,400 Climbing New York Center
09:16AM 40.8672 -74.3683 300° West 230 265 8,700 3,300 Climbing New York Center
09:17AM 40.9194 -74.4317 318° Northwest 262 302 12,000 3,480 Climbing New York Center
09:18AM 41.0941 -74.6126 306° West  Level FlightAware Approximate
09:18AM 40.9917 -74.5181 318° Northwest 308 354 15,800  Level New York Center
09:19AM 41.0578 -74.5986 317° Northwest 349 402 16,000 1,140 Climbing New York Center
09:20AM 41.1397 -74.7053 316° Northwest 370 426 18,100 2,640 Climbing New York Center
09:21AM 41.1903 -74.8158 301° West 388 447 21,400 3,300 Climbing New York Center
09:22AM 41.2458 -74.9514 299° West 395 455 24,700 2,760 Climbing New York Center
09:23AM 41.3019 -75.0764 301° West 389 448 26,900 2,160 Climbing New York Center
09:24AM 41.3553 -75.2042 299° West 389 448 29,100 1,800 Climbing New York Center
09:25AM 41.4128 -75.3353 300° West 389 448 30,600 1,500 Climbing New York Center
09:26AM 41.4722 -75.4722 300° West 411 473 32,200 1,680 Climbing New York Center
09:27AM 41.5142 -75.6164 291° West 417 480 34,000 1,800 Climbing New York Center
09:28AM 41.5542 -75.7581 291° West 417 480 35,800 1,740 Climbing New York Center
09:29AM 41.5961 -75.8969 292° West 412 474 37,500 1,620 Climbing New York Center
09:30AM 41.6342 -76.0303 291° West 405 466 39,200 1,380 Climbing New York Center
09:31AM 41.6683 -76.1497 291° West 394 453 40,400 1,140 Climbing New York Center
09:32AM 41.7058 -76.2833 291° West 389 448 41,500 900 Climbing New York Center
09:33AM 41.7433 -76.4169 291° West 389 448 42,200 540 Climbing New York Center
09:34AM 41.7819 -76.5650 289° West 389 448 42,700 360 Climbing New York Center
09:35AM 41.8189 -76.7019 290° West 389 448 43,000 120 Climbing New York Center
09:36AM 41.8575 -76.8444 290° West 401 461 43,000  Level New York Center
09:37AM 41.8961 -76.9875 290° West 401 461 43,000  Level New York Center
09:37AM 41.9161 -77.0503 293° West 420 483 43,000  Level Cleveland Center
09:38AM 41.9539 -77.1933 290° West 426 490 43,000  Level Cleveland Center
09:39AM 41.9911 -77.3311 290° West 415 478 43,000  Level Cleveland Center
09:40AM 42.0283 -77.4717 290° West 403 464 43,000  Level Cleveland Center
09:41AM 42.0678 -77.6181 290° West 403 464 43,000  Level Cleveland Center
09:42AM 42.1069 -77.7675 290° West 403 464 43,000  Level Cleveland Center
09:43AM 42.1436 -77.9086 289° West 408 470 43,000  Level Cleveland Center
09:44AM 42.1803 -78.0528 289° West 408 470 43,000  Level Cleveland Center
09:45AM 42.2189 -78.1972 290° West 403 464 43,000  Level Cleveland Center
09:46AM 42.2547 -78.3333 290° West 398 458 43,000  Level Cleveland Center
09:47AM 42.2908 -78.4725 289° West 398 458 43,000  Level Cleveland Center
09:48AM 42.3244 -78.6117 288° West 398 458 43,000  Level Cleveland Center
09:50AM 42.3529 -78.7439 289° West  Level FlightAware Approximate
09:50AM 42.3936 -78.8850 289° West 398 458 43,000  Level Cleveland Center
09:51AM 42.4267 -79.0192 288° West 392 451 43,000  Level Cleveland Center
09:52AM 42.4661 -79.1703 290° West 392 451 43,000  Level Cleveland Center
09:53AM 42.5011 -79.3103 289° West 385 443 43,000  Level Cleveland Center
09:54AM 42.5047 -79.4539 272° West 380 437 43,000  Level Cleveland Center
09:55AM 42.5103 -79.6003 273° West 380 437 43,000  Level Cleveland Center
09:56AM 42.5133 -79.7439 272° West 385 443 43,000  Level Cleveland Center
09:57AM 42.5206 -79.8903 274° West 385 443 43,000  Level Cleveland Center
09:58AM 42.5256 -80.0197 273° West 385 443 43,000  Level Cleveland Center
09:59AM 42.5325 -80.1689 274° West 390 449 43,000  Level Cleveland Center
10:00AM 42.5369 -80.3156 272° West 390 449 43,000  Level Cleveland Center
10:01AM 42.5456 -80.4647 275° West 395 455 43,000  Level Cleveland Center
10:02AM 42.5519 -80.6142 273° West 395 455 43,000  Level Cleveland Center
10:03AM 42.5539 -80.7636 271° West 400 460 43,000  Level Cleveland Center
10:04AM 42.5597 -80.9186 273° West 405 466 43,000  Level Cleveland Center
10:05AM 42.5656 -81.0794 273° West 400 460 43,000  Level Cleveland Center
10:06AM 42.5731 -81.2344 274° West 406 467 43,000  Level Cleveland Center
10:07AM 42.5783 -81.3839 273° West 406 467 43,000  Level Cleveland Center
10:08AM 42.5958 -81.5336 279° West 406 467 43,000  Level Cleveland Center
10:09AM 42.6239 -81.6781 285° West 406 467 43,000 -11,520 Level Cleveland Center
10:10AM 42.6472 -81.8281 282° West 407 468 20,000 -4,260 Descending Cleveland Center
10:11AM 42.6728 -81.9781 283° West 413 475 34,500 5,760 Climbing Cleveland Center
10:12AM 42.7019 -82.1428 284° West 426 490 31,600 -3,480 Descending Cleveland Center
10:13AM 42.7308 -82.3017 284° West 436 502 27,600 -3,480 Descending Cleveland Center
10:14AM 42.7594 -82.4694 283° West 443 510 24,700 -2,820 Descending Cleveland Center
10:15AM 42.7858 -82.6314 283° West 448 516 22,000 -2,100 Descending Cleveland Center
10:16AM 42.8142 -82.7964 283° West 448 516 20,500 -2,040 Descending Cleveland Center
10:17AM 42.8914 -82.8928 318° Northwest 382 440 18,000 -2,880 Descending Cleveland Center
10:18AM 42.9794 -82.9669 328° Northwest 361 415 14,800 -2,760 Descending Cleveland Center
10:19AM 42.9867 -83.1178 274° West 366 421 12,500 -2,220 Descending Cleveland Center
10:20AM 42.9794 -83.2536 266° West 366 421 10,400 -2,280 Descending Cleveland Center
10:21AM 42.9789 -83.3644 270° West 323 372 8,000 -2,400 Descending Cleveland Center
10:22AM 42.9742 -83.4692 267° West 282 325 5,700 -2,040 Descending Cleveland Center
10:23AM 42.9742 -83.5514 270° West 238 274 4,000 -1,740 Descending Cleveland Center
10:24AM 42.9725 -83.6194 268° West 198 228 2,300 -1,200 Descending Cleveland Center
10:25AM 42.9708 -83.6789 268° West 165 190 1,600 -720 Descending Cleveland Center
10:26AM 42.9697 -83.7272 268° West 141 162 900 -480 Descending Cleveland Center
10:27AM 42.9683 -83.7781 268° West 141 162 700 -240 Descending Cleveland Center